sensor_id;sensor_type;location;lat;lon;timestamp;pressure;altitude;pressure_sealevel;temperature;humidity
7532;BME280;3807;49.030;8.714;2023-12-20T00:01:14;99400.44;;;7.26;79.84
7532;BME280;3807;49.030;8.714;2023-12-20T00:03:40;99391.06;;;7.31;79.79
7532;BME280;3807;49.030;8.714;2023-12-20T00:06:05;99393.69;;;7.25;80.04
7532;BME280;3807;49.030;8.714;2023-12-20T00:08:31;99394.56;;;7.24;80.18
7532;BME280;3807;49.030;8.714;2023-12-20T00:10:56;99395.38;;;7.26;79.84
7532;BME280;3807;49.030;8.714;2023-12-20T00:13:21;99387.84;;;7.21;79.66
7532;BME280;3807;49.030;8.714;2023-12-20T00:15:46;99392.84;;;7.24;80.32
7532;BME280;3807;49.030;8.714;2023-12-20T00:18:12;99382.72;;;7.26;80.12
7532;BME280;3807;49.030;8.714;2023-12-20T00:20:37;99385.25;;;7.24;80.11
7532;BME280;3807;49.030;8.714;2023-12-20T00:23:03;99389.56;;;7.21;80.40
7532;BME280;3807;49.030;8.714;2023-12-20T00:25:28;99385.38;;;7.18;80.67
7532;BME280;3807;49.030;8.714;2023-12-20T00:27:54;99387.69;;;7.30;80.50
7532;BME280;3807;49.030;8.714;2023-12-20T00:30:19;99381.03;;;7.25;80.64
7532;BME280;3807;49.030;8.714;2023-12-20T00:32:44;99376.81;;;7.25;80.13
7532;BME280;3807;49.030;8.714;2023-12-20T00:35:13;99375.97;;;7.25;80.19
7532;BME280;3807;49.030;8.714;2023-12-20T00:37:38;99390.38;;;7.23;80.09
7532;BME280;3807;49.030;8.714;2023-12-20T00:40:04;99376.06;;;7.20;80.59
7532;BME280;3807;49.030;8.714;2023-12-20T00:42:30;99383.69;;;7.19;79.90
7532;BME280;3807;49.030;8.714;2023-12-20T00:44:55;99383.66;;;7.20;80.59
7532;BME280;3807;49.030;8.714;2023-12-20T00:47:20;99372.63;;;7.23;80.45
7532;BME280;3807;49.030;8.714;2023-12-20T00:49:47;99373.44;;;7.25;80.74
7532;BME280;3807;49.030;8.714;2023-12-20T00:52:12;99372.66;;;7.21;80.11
7532;BME280;3807;49.030;8.714;2023-12-20T00:54:38;99378.75;;;7.12;80.77
7532;BME280;3807;49.030;8.714;2023-12-20T00:57:03;99368.59;;;7.12;80.84
7532;BME280;3807;49.030;8.714;2023-12-20T00:59:28;99373.56;;;7.17;81.04
7532;BME280;3807;49.030;8.714;2023-12-20T01:01:54;99378.59;;;7.20;80.31
7532;BME280;3807;49.030;8.714;2023-12-20T01:04:19;99383.72;;;7.17;80.69
7532;BME280;3807;49.030;8.714;2023-12-20T01:06:44;99386.22;;;7.19;80.74
7532;BME280;3807;49.030;8.714;2023-12-20T01:09:10;99384.56;;;7.16;81.06
7532;BME280;3807;49.030;8.714;2023-12-20T01:11:35;99395.38;;;7.24;80.73
7532;BME280;3807;49.030;8.714;2023-12-20T01:14:00;99392.09;;;7.21;80.67
7532;BME280;3807;49.030;8.714;2023-12-20T01:16:26;99388.19;;;7.04;80.90
7532;BME280;3807;49.030;8.714;2023-12-20T01:18:51;99388.13;;;7.06;82.04
7532;BME280;3807;49.030;8.714;2023-12-20T01:21:16;99388.69;;;7.22;81.22
7532;BME280;3807;49.030;8.714;2023-12-20T01:23:42;99388.09;;;7.07;81.78
7532;BME280;3807;49.030;8.714;2023-12-20T01:26:07;99384.72;;;7.07;81.99
7532;BME280;3807;49.030;8.714;2023-12-20T01:28:32;99384.72;;;7.07;81.97
7532;BME280;3807;49.030;8.714;2023-12-20T01:30:58;99380.19;;;7.26;80.75
7532;BME280;3807;49.030;8.714;2023-12-20T01:33:23;99379.41;;;7.21;81.01
7532;BME280;3807;49.030;8.714;2023-12-20T01:35:49;99377.13;;;7.07;81.67
7532;BME280;3807;49.030;8.714;2023-12-20T01:38:14;99373.88;;;7.00;81.95
7532;BME280;3807;49.030;8.714;2023-12-20T01:40:39;99378.06;;;7.03;82.57
7532;BME280;3807;49.030;8.714;2023-12-20T01:43:07;99371.47;;;6.94;82.96
7532;BME280;3807;49.030;8.714;2023-12-20T01:45:33;99377.09;;;7.10;81.85
7532;BME280;3807;49.030;8.714;2023-12-20T01:47:59;99371.28;;;7.05;81.91
7532;BME280;3807;49.030;8.714;2023-12-20T01:50:27;99377.06;;;7.11;82.36
7532;BME280;3807;49.030;8.714;2023-12-20T01:52:53;99376.31;;;7.06;82.10
7532;BME280;3807;49.030;8.714;2023-12-20T01:55:23;99374.41;;;7.18;81.05
7532;BME280;3807;49.030;8.714;2023-12-20T01:57:48;99383.03;;;7.09;82.02
7532;BME280;3807;49.030;8.714;2023-12-20T02:00:14;99374.41;;;7.18;82.09
7532;BME280;3807;49.030;8.714;2023-12-20T02:02:40;99371.19;;;7.09;82.04
7532;BME280;3807;49.030;8.714;2023-12-20T02:05:06;99371.91;;;7.16;82.10
7532;BME280;3807;49.030;8.714;2023-12-20T02:07:32;99376.50;;;6.96;82.58
7532;BME280;3807;49.030;8.714;2023-12-20T02:09:58;99377.22;;;7.02;83.05
7532;BME280;3807;49.030;8.714;2023-12-20T02:12:23;99385.44;;;7.15;82.60
7532;BME280;3807;49.030;8.714;2023-12-20T02:14:49;99382.97;;;7.10;82.23
7532;BME280;3807;49.030;8.714;2023-12-20T02:17:15;99387.22;;;7.11;82.36
7532;BME280;3807;49.030;8.714;2023-12-20T02:19:41;99391.50;;;7.08;82.72
7532;BME280;3807;49.030;8.714;2023-12-20T02:22:12;99388.03;;;7.10;82.88
7532;BME280;3807;49.030;8.714;2023-12-20T02:24:38;99387.91;;;7.18;82.25
7532;BME280;3807;49.030;8.714;2023-12-20T02:27:05;99386.38;;;7.09;82.19
7532;BME280;3807;49.030;8.714;2023-12-20T02:29:33;99379.63;;;7.10;82.50
7532;BME280;3807;49.030;8.714;2023-12-20T02:31:58;99378.09;;;7.01;83.00
7532;BME280;3807;49.030;8.714;2023-12-20T02:34:23;99377.13;;;7.07;82.74
7532;BME280;3807;49.030;8.714;2023-12-20T02:36:49;99371.38;;;6.99;82.77
7532;BME280;3807;49.030;8.714;2023-12-20T02:39:14;99382.09;;;7.13;82.29
7532;BME280;3807;49.030;8.714;2023-12-20T02:41:39;99382.00;;;7.19;82.58
7532;BME280;3807;49.030;8.714;2023-12-20T02:44:05;99376.34;;;7.05;83.08
7532;BME280;3807;49.030;8.714;2023-12-20T02:46:30;99381.44;;;7.03;82.64
7532;BME280;3807;49.030;8.714;2023-12-20T02:48:55;99386.22;;;7.19;82.16
7532;BME280;3807;49.030;8.714;2023-12-20T02:51:21;99382.16;;;7.10;82.54
7532;BME280;3807;49.030;8.714;2023-12-20T02:53:46;99371.34;;;7.00;82.72
7532;BME280;3807;49.030;8.714;2023-12-20T02:56:11;99388.28;;;6.98;83.43
7532;BME280;3807;49.030;8.714;2023-12-20T02:58:37;99395.63;;;7.12;82.25
7532;BME280;3807;49.030;8.714;2023-12-20T03:01:02;99384.53;;;7.19;82.38
7532;BME280;3807;49.030;8.714;2023-12-20T03:03:28;99390.50;;;7.15;82.02
7532;BME280;3807;49.030;8.714;2023-12-20T03:05:53;99395.78;;;7.03;83.14
7532;BME280;3807;49.030;8.714;2023-12-20T03:08:18;99406.56;;;7.14;82.58
7532;BME280;3807;49.030;8.714;2023-12-20T03:10:44;99400.81;;;7.06;83.18
7532;BME280;3807;49.030;8.714;2023-12-20T03:13:10;99394.06;;;7.05;83.28
7532;BME280;3807;49.030;8.714;2023-12-20T03:15:35;99403.19;;;7.13;82.69
7532;BME280;3807;49.030;8.714;2023-12-20T03:18:01;99397.03;;;7.27;81.82
7532;BME280;3807;49.030;8.714;2023-12-20T03:20:26;99399.72;;;7.19;82.85
7532;BME280;3807;49.030;8.714;2023-12-20T03:22:52;99403.88;;;7.22;82.70
7532;BME280;3807;49.030;8.714;2023-12-20T03:25:17;99396.22;;;7.26;82.73
7532;BME280;3807;49.030;8.714;2023-12-20T03:27:42;99401.31;;;7.23;82.47
7532;BME280;3807;49.030;8.714;2023-12-20T03:30:08;99398.03;;;7.18;82.75
7532;BME280;3807;49.030;8.714;2023-12-20T03:32:34;99395.53;;;7.16;82.60
7532;BME280;3807;49.030;8.714;2023-12-20T03:34:59;99385.50;;;7.12;82.69
7532;BME280;3807;49.030;8.714;2023-12-20T03:37:24;99392.28;;;7.10;83.29
7532;BME280;3807;49.030;8.714;2023-12-20T03:39:50;99396.34;;;7.19;82.11
7532;BME280;3807;49.030;8.714;2023-12-20T03:42:15;99399.31;;;6.94;83.90
7532;BME280;3807;49.030;8.714;2023-12-20T03:44:40;99396.56;;;7.08;83.28
7532;BME280;3807;49.030;8.714;2023-12-20T03:47:06;99404.78;;;7.19;82.59
7532;BME280;3807;49.030;8.714;2023-12-20T03:49:31;99398.94;;;7.15;82.90
7532;BME280;3807;49.030;8.714;2023-12-20T03:51:57;99392.13;;;7.18;82.87
7532;BME280;3807;49.030;8.714;2023-12-20T03:54:22;99395.53;;;7.16;82.70
7532;BME280;3807;49.030;8.714;2023-12-20T03:56:47;99370.53;;;7.00;83.66
7532;BME280;3807;49.030;8.714;2023-12-20T03:59:13;99380.38;;;7.15;83.04
7532;BME280;3807;49.030;8.714;2023-12-20T04:01:43;99396.41;;;7.15;83.06
7532;BME280;3807;49.030;8.714;2023-12-20T04:04:09;99390.56;;;7.10;82.82
7532;BME280;3807;49.030;8.714;2023-12-20T04:06:34;99398.94;;;7.14;82.98
7532;BME280;3807;49.030;8.714;2023-12-20T04:09:00;99386.50;;;7.03;83.33
7532;BME280;3807;49.030;8.714;2023-12-20T04:11:25;99386.44;;;7.08;83.56
7532;BME280;3807;49.030;8.714;2023-12-20T04:13:50;99394.75;;;7.13;83.02
7532;BME280;3807;49.030;8.714;2023-12-20T04:16:16;99403.97;;;7.17;83.28
7532;BME280;3807;49.030;8.714;2023-12-20T04:18:41;99400.72;;;7.10;83.12
7532;BME280;3807;49.030;8.714;2023-12-20T04:21:06;99401.63;;;7.06;83.75
7532;BME280;3807;49.030;8.714;2023-12-20T04:23:32;99414.88;;;7.21;82.99
7532;BME280;3807;49.030;8.714;2023-12-20T04:25:58;99407.56;;;7.05;83.71
7532;BME280;3807;49.030;8.714;2023-12-20T04:28:23;99406.84;;;6.97;83.83
7532;BME280;3807;49.030;8.714;2023-12-20T04:30:48;99408.34;;;7.07;83.54
7532;BME280;3807;49.030;8.714;2023-12-20T04:33:14;99417.59;;;7.10;83.30
7532;BME280;3807;49.030;8.714;2023-12-20T04:35:39;99410.16;;;7.02;83.87
7532;BME280;3807;49.030;8.714;2023-12-20T04:38:06;99404.09;;;7.09;83.42
7532;BME280;3807;49.030;8.714;2023-12-20T04:40:31;99404.88;;;7.13;83.63
7532;BME280;3807;49.030;8.714;2023-12-20T04:42:57;99410.78;;;7.13;83.25
7532;BME280;3807;49.030;8.714;2023-12-20T04:45:22;99423.34;;;7.20;83.20
7532;BME280;3807;49.030;8.714;2023-12-20T04:47:50;99416.88;;;7.03;83.52
7532;BME280;3807;49.030;8.714;2023-12-20T04:50:15;99413.31;;;7.13;83.77
7532;BME280;3807;49.030;8.714;2023-12-20T04:52:41;99418.56;;;7.03;83.80
7532;BME280;3807;49.030;8.714;2023-12-20T04:55:06;99432.94;;;7.01;84.18
7532;BME280;3807;49.030;8.714;2023-12-20T04:57:32;99434.53;;;7.06;83.63
7532;BME280;3807;49.030;8.714;2023-12-20T04:59:57;99415.94;;;7.07;84.20
7532;BME280;3807;49.030;8.714;2023-12-20T05:02:22;99433.63;;;7.10;84.01
7532;BME280;3807;49.030;8.714;2023-12-20T05:04:48;99436.28;;;7.04;84.22
7532;BME280;3807;49.030;8.714;2023-12-20T05:07:13;99433.53;;;7.16;83.44
7532;BME280;3807;49.030;8.714;2023-12-20T05:09:39;99431.19;;;7.06;84.26
7532;BME280;3807;49.030;8.714;2023-12-20T05:12:04;99445.50;;;7.08;84.20
7532;BME280;3807;49.030;8.714;2023-12-20T05:14:30;99444.56;;;7.12;83.56
7532;BME280;3807;49.030;8.714;2023-12-20T05:16:56;99450.34;;;7.21;83.62
7532;BME280;3807;49.030;8.714;2023-12-20T05:19:21;99459.63;;;7.20;83.60
7532;BME280;3807;49.030;8.714;2023-12-20T05:21:47;99456.13;;;7.27;83.06
7532;BME280;3807;49.030;8.714;2023-12-20T05:24:12;99462.34;;;7.09;84.02
7532;BME280;3807;49.030;8.714;2023-12-20T05:26:37;99470.69;;;7.14;83.97
7532;BME280;3807;49.030;8.714;2023-12-20T05:29:03;99461.44;;;7.15;84.00
7532;BME280;3807;49.030;8.714;2023-12-20T05:31:28;99465.81;;;7.05;84.37
7532;BME280;3807;49.030;8.714;2023-12-20T05:33:53;99470.78;;;7.11;84.36
7532;BME280;3807;49.030;8.714;2023-12-20T05:36:19;99478.13;;;7.25;83.50
7532;BME280;3807;49.030;8.714;2023-12-20T05:38:45;99479.78;;;7.26;83.04
7532;BME280;3807;49.030;8.714;2023-12-20T05:41:10;99482.28;;;7.28;83.16
7532;BME280;3807;49.030;8.714;2023-12-20T05:43:35;99487.41;;;7.25;83.41
7532;BME280;3807;49.030;8.714;2023-12-20T05:46:01;99492.69;;;7.11;84.14
7532;BME280;3807;49.030;8.714;2023-12-20T05:48:26;99500.25;;;7.14;84.31
7532;BME280;3807;49.030;8.714;2023-12-20T05:50:52;99499.50;;;7.07;84.67
7532;BME280;3807;49.030;8.714;2023-12-20T05:53:18;99511.91;;;7.26;83.13
7532;BME280;3807;49.030;8.714;2023-12-20T05:55:43;99509.56;;;7.13;84.35
7532;BME280;3807;49.030;8.714;2023-12-20T05:58:08;99508.41;;;7.31;83.09
7532;BME280;3807;49.030;8.714;2023-12-20T06:00:34;99505.03;;;7.32;82.85
7532;BME280;3807;49.030;8.714;2023-12-20T06:02:59;99509.31;;;7.29;82.92
7532;BME280;3807;49.030;8.714;2023-12-20T06:05:24;99510.16;;;7.28;83.46
7532;BME280;3807;49.030;8.714;2023-12-20T06:07:50;99511.03;;;7.27;83.62
7532;BME280;3807;49.030;8.714;2023-12-20T06:10:16;99519.31;;;7.35;83.17
7532;BME280;3807;49.030;8.714;2023-12-20T06:12:41;99530.47;;;7.26;83.50
7532;BME280;3807;49.030;8.714;2023-12-20T06:15:07;99528.56;;;7.37;82.96
7532;BME280;3807;49.030;8.714;2023-12-20T06:17:32;99540.50;;;7.31;83.12
7532;BME280;3807;49.030;8.714;2023-12-20T06:19:58;99542.16;;;7.33;83.25
7532;BME280;3807;49.030;8.714;2023-12-20T06:22:23;99543.69;;;7.44;82.93
7532;BME280;3807;49.030;8.714;2023-12-20T06:24:48;99540.41;;;7.37;82.71
7532;BME280;3807;49.030;8.714;2023-12-20T06:27:14;99548.72;;;7.45;82.25
7532;BME280;3807;49.030;8.714;2023-12-20T06:29:39;99542.13;;;7.36;82.57
7532;BME280;3807;49.030;8.714;2023-12-20T06:32:06;99544.66;;;7.36;83.12
7532;BME280;3807;49.030;8.714;2023-12-20T06:34:31;99542.34;;;7.21;83.61
7532;BME280;3807;49.030;8.714;2023-12-20T06:36:57;99554.69;;;7.41;82.87
7532;BME280;3807;49.030;8.714;2023-12-20T06:39:22;99561.47;;;7.39;82.85
7532;BME280;3807;49.030;8.714;2023-12-20T06:41:47;99560.63;;;7.38;82.53
7532;BME280;3807;49.030;8.714;2023-12-20T06:44:13;99557.13;;;7.47;82.91
7532;BME280;3807;49.030;8.714;2023-12-20T06:46:38;99550.41;;;7.45;82.61
7532;BME280;3807;49.030;8.714;2023-12-20T06:49:03;99536.22;;;7.36;83.12
7532;BME280;3807;49.030;8.714;2023-12-20T06:51:29;99548.94;;;7.33;83.46
7532;BME280;3807;49.030;8.714;2023-12-20T06:53:56;99553.03;;;7.38;82.48
7532;BME280;3807;49.030;8.714;2023-12-20T06:56:21;99557.38;;;7.32;83.36
7532;BME280;3807;49.030;8.714;2023-12-20T06:58:46;99559.09;;;7.30;83.60
7532;BME280;3807;49.030;8.714;2023-12-20T07:01:13;99566.50;;;7.42;83.06
7532;BME280;3807;49.030;8.714;2023-12-20T07:03:39;99585.16;;;7.38;82.77
7532;BME280;3807;49.030;8.714;2023-12-20T07:06:05;99589.44;;;7.34;82.79
7532;BME280;3807;49.030;8.714;2023-12-20T07:08:30;99577.59;;;7.35;83.08
7532;BME280;3807;49.030;8.714;2023-12-20T07:10:56;99575.78;;;7.43;82.29
7532;BME280;3807;49.030;8.714;2023-12-20T07:13:21;99592.81;;;7.33;82.82
7532;BME280;3807;49.030;8.714;2023-12-20T07:15:48;99594.34;;;7.44;82.10
7532;BME280;3807;49.030;8.714;2023-12-20T07:18:13;99596.84;;;7.45;81.84
7532;BME280;3807;49.030;8.714;2023-12-20T07:20:38;99596.97;;;7.37;82.20
7532;BME280;3807;49.030;8.714;2023-12-20T07:23:04;99606.38;;;7.31;82.28
7532;BME280;3807;49.030;8.714;2023-12-20T07:25:29;99607.94;;;7.38;81.98
7532;BME280;3807;49.030;8.714;2023-12-20T07:27:57;99611.47;;;7.29;82.39
7532;BME280;3807;49.030;8.714;2023-12-20T07:30:23;99610.44;;;7.41;82.61
7532;BME280;3807;49.030;8.714;2023-12-20T07:32:48;99613.72;;;7.48;82.88
7532;BME280;3807;49.030;8.714;2023-12-20T07:35:15;99609.88;;;7.75;81.65
7532;BME280;3807;49.030;8.714;2023-12-20T07:37:40;99618.88;;;7.93;80.61
7532;BME280;3807;49.030;8.714;2023-12-20T07:40:06;99617.41;;;7.79;80.79
7532;BME280;3807;49.030;8.714;2023-12-20T07:42:32;99621.78;;;7.71;80.74
7532;BME280;3807;49.030;8.714;2023-12-20T07:44:58;99624.59;;;7.54;81.52
7532;BME280;3807;49.030;8.714;2023-12-20T07:47:23;99619.44;;;7.59;81.43
7532;BME280;3807;49.030;8.714;2023-12-20T07:49:50;99626.16;;;7.61;80.84
7532;BME280;3807;49.030;8.714;2023-12-20T07:52:17;99628.38;;;7.80;79.98
7532;BME280;3807;49.030;8.714;2023-12-20T07:54:44;99634.38;;;7.76;79.98
7532;BME280;3807;49.030;8.714;2023-12-20T07:57:10;99634.69;;;7.56;80.97
7532;BME280;3807;49.030;8.714;2023-12-20T07:59:35;99616.84;;;7.62;80.49
7532;BME280;3807;49.030;8.714;2023-12-20T08:02:01;99633.03;;;7.55;80.67
7532;BME280;3807;49.030;8.714;2023-12-20T08:04:26;99634.03;;;7.46;80.92
7532;BME280;3807;49.030;8.714;2023-12-20T08:06:52;99642.53;;;7.39;81.32
7532;BME280;3807;49.030;8.714;2023-12-20T08:09:18;99645.88;;;7.43;81.26
7532;BME280;3807;49.030;8.714;2023-12-20T08:11:47;99648.44;;;7.41;81.03
7532;BME280;3807;49.030;8.714;2023-12-20T08:14:13;99641.00;;;7.30;81.47
7532;BME280;3807;49.030;8.714;2023-12-20T08:16:38;99641.91;;;7.25;81.22
7532;BME280;3807;49.030;8.714;2023-12-20T08:19:03;99644.56;;;7.19;81.50
7532;BME280;3807;49.030;8.714;2023-12-20T08:21:29;99646.19;;;7.23;81.67
7532;BME280;3807;49.030;8.714;2023-12-20T08:23:55;99652.88;;;7.27;81.26
7532;BME280;3807;49.030;8.714;2023-12-20T08:26:20;99657.97;;;7.25;81.08
7532;BME280;3807;49.030;8.714;2023-12-20T08:28:47;99657.97;;;7.24;81.34
7532;BME280;3807;49.030;8.714;2023-12-20T08:31:16;99656.34;;;7.20;81.28
7532;BME280;3807;49.030;8.714;2023-12-20T08:33:44;99654.78;;;7.11;81.89
7532;BME280;3807;49.030;8.714;2023-12-20T08:36:09;99645.34;;;7.22;81.82
7532;BME280;3807;49.030;8.714;2023-12-20T08:38:35;99658.22;;;7.08;81.99
7532;BME280;3807;49.030;8.714;2023-12-20T08:41:01;99676.81;;;7.06;81.85
7532;BME280;3807;49.030;8.714;2023-12-20T08:43:28;99665.88;;;7.01;82.54
7532;BME280;3807;49.030;8.714;2023-12-20T08:45:53;99676.06;;;6.99;82.33
7532;BME280;3807;49.030;8.714;2023-12-20T08:48:19;99669.25;;;7.04;81.92
7532;BME280;3807;49.030;8.714;2023-12-20T08:50:44;99665.88;;;7.02;82.23
7532;BME280;3807;49.030;8.714;2023-12-20T08:53:10;99666.56;;;7.13;80.98
7532;BME280;3807;49.030;8.714;2023-12-20T08:55:35;99666.53;;;7.16;80.68
7532;BME280;3807;49.030;8.714;2023-12-20T08:58:00;99663.25;;;7.10;81.32
7532;BME280;3807;49.030;8.714;2023-12-20T09:00:26;99667.56;;;7.03;81.27
7532;BME280;3807;49.030;8.714;2023-12-20T09:02:53;99668.34;;;7.07;81.19
7532;BME280;3807;49.030;8.714;2023-12-20T09:05:19;99658.19;;;7.11;80.93
7532;BME280;3807;49.030;8.714;2023-12-20T09:07:45;99662.53;;;7.00;81.62
7532;BME280;3807;49.030;8.714;2023-12-20T09:10:10;99656.66;;;6.98;81.45
7532;BME280;3807;49.030;8.714;2023-12-20T09:12:35;99660.09;;;6.94;81.72
7532;BME280;3807;49.030;8.714;2023-12-20T09:15:04;99660.94;;;6.93;81.79
7532;BME280;3807;49.030;8.714;2023-12-20T09:17:30;99665.22;;;6.88;81.92
7532;BME280;3807;49.030;8.714;2023-12-20T09:19:56;99662.59;;;6.96;81.23
7532;BME280;3807;49.030;8.714;2023-12-20T09:22:21;99667.56;;;7.03;81.03
7532;BME280;3807;49.030;8.714;2023-12-20T09:24:47;99669.28;;;7.01;81.25
7532;BME280;3807;49.030;8.714;2023-12-20T09:27:12;99665.91;;;6.99;80.97
7532;BME280;3807;49.030;8.714;2023-12-20T09:29:37;99657.50;;;6.99;80.84
7532;BME280;3807;49.030;8.714;2023-12-20T09:32:03;99667.66;;;6.96;81.39
7532;BME280;3807;49.030;8.714;2023-12-20T09:34:28;99660.16;;;6.88;81.23
7532;BME280;3807;49.030;8.714;2023-12-20T09:36:54;99654.25;;;6.90;81.35
7532;BME280;3807;49.030;8.714;2023-12-20T09:39:21;99658.53;;;6.82;81.72
7532;BME280;3807;49.030;8.714;2023-12-20T09:42:05;99664.38;;;6.90;80.85
7532;BME280;3807;49.030;8.714;2023-12-20T09:44:32;99677.06;;;6.87;81.32
7532;BME280;3807;49.030;8.714;2023-12-20T09:47:02;99670.19;;;6.96;80.94
7532;BME280;3807;49.030;8.714;2023-12-20T09:49:29;99672.81;;;6.86;81.10
7532;BME280;3807;49.030;8.714;2023-12-20T09:51:55;99670.41;;;6.80;81.60
7532;BME280;3807;49.030;8.714;2023-12-20T09:54:21;99676.25;;;6.84;81.00
7532;BME280;3807;49.030;8.714;2023-12-20T09:56:47;99674.59;;;6.80;81.99
7532;BME280;3807;49.030;8.714;2023-12-20T09:59:13;99675.03;;;7.11;80.44
7532;BME280;3807;49.030;8.714;2023-12-20T10:01:40;99678.38;;;7.14;80.21
7532;BME280;3807;49.030;8.714;2023-12-20T10:04:07;99665.47;;;7.33;79.27
7532;BME280;3807;49.030;8.714;2023-12-20T10:06:42;99680.03;;;7.19;80.03
7532;BME280;3807;49.030;8.714;2023-12-20T10:09:08;99664.63;;;7.31;79.03
7532;BME280;3807;49.030;8.714;2023-12-20T10:11:37;99673.22;;;7.21;79.83
7532;BME280;3807;49.030;8.714;2023-12-20T10:14:03;99665.59;;;7.25;79.36
7532;BME280;3807;49.030;8.714;2023-12-20T10:16:30;99659.00;;;7.12;79.50
7532;BME280;3807;49.030;8.714;2023-12-20T10:18:56;99653.25;;;6.99;80.42
7532;BME280;3807;49.030;8.714;2023-12-20T10:21:25;99659.88;;;7.09;80.35
7532;BME280;3807;49.030;8.714;2023-12-20T10:23:54;99652.34;;;7.03;80.13
7532;BME280;3807;49.030;8.714;2023-12-20T10:26:21;99655.44;;;7.25;79.50
7532;BME280;3807;49.030;8.714;2023-12-20T10:28:50;99659.69;;;7.22;79.61
7532;BME280;3807;49.030;8.714;2023-12-20T10:31:36;99648.06;;;7.10;79.74
7532;BME280;3807;49.030;8.714;2023-12-20T10:34:03;99646.28;;;7.16;79.43
7532;BME280;3807;49.030;8.714;2023-12-20T10:36:30;99649.03;;;7.01;80.39
7532;BME280;3807;49.030;8.714;2023-12-20T10:38:57;99644.56;;;7.19;79.56
7532;BME280;3807;49.030;8.714;2023-12-20T10:41:32;99647.31;;;7.02;80.46
7532;BME280;3807;49.030;8.714;2023-12-20T10:44:03;99645.16;;;7.34;78.84
7532;BME280;3807;49.030;8.714;2023-12-20T10:46:30;99650.19;;;7.37;78.86
7532;BME280;3807;49.030;8.714;2023-12-20T10:48:57;99654.69;;;7.17;79.85
7532;BME280;3807;49.030;8.714;2023-12-20T10:51:23;99648.66;;;7.27;79.44
7532;BME280;3807;49.030;8.714;2023-12-20T10:53:52;99635.16;;;7.27;80.03
7532;BME280;3807;49.030;8.714;2023-12-20T10:56:18;99641.09;;;7.26;79.76
7532;BME280;3807;49.030;8.714;2023-12-20T10:58:45;99646.34;;;7.12;80.26
7532;BME280;3807;49.030;8.714;2023-12-20T11:01:13;99641.84;;;7.31;79.90
7532;BME280;3807;49.030;8.714;2023-12-20T11:03:43;99646.91;;;7.32;78.89
7532;BME280;3807;49.030;8.714;2023-12-20T11:06:33;99647.72;;;7.31;79.49
7532;BME280;3807;49.030;8.714;2023-12-20T11:09:29;99652.75;;;7.36;79.53
7532;BME280;3807;49.030;8.714;2023-12-20T11:12:16;99639.44;;;7.22;79.47
7532;BME280;3807;49.030;8.714;2023-12-20T11:14:53;99620.00;;;7.24;79.58
7532;BME280;3807;49.030;8.714;2023-12-20T11:17:21;99609.72;;;7.33;79.18
7532;BME280;3807;49.030;8.714;2023-12-20T11:22:19;99600.63;;;7.20;79.50
7532;BME280;3807;49.030;8.714;2023-12-20T11:24:45;99604.94;;;7.13;79.91
7532;BME280;3807;49.030;8.714;2023-12-20T11:27:13;99608.13;;;7.27;79.56
7532;BME280;3807;49.030;8.714;2023-12-20T11:29:38;99616.28;;;7.45;79.00
7532;BME280;3807;49.030;8.714;2023-12-20T11:34:58;99609.50;;;7.47;79.04
7532;BME280;3807;49.030;8.714;2023-12-20T11:37:31;99606.25;;;7.38;78.54
7532;BME280;3807;49.030;8.714;2023-12-20T11:40:02;99598.63;;;7.40;79.11
7532;BME280;3807;49.030;8.714;2023-12-20T11:42:33;99587.59;;;7.43;78.78
7532;BME280;3807;49.030;8.714;2023-12-20T11:44:59;99596.66;;;7.57;77.68
7532;BME280;3807;49.030;8.714;2023-12-20T11:47:25;99584.25;;;7.40;78.39
7532;BME280;3807;49.030;8.714;2023-12-20T11:49:50;99596.84;;;7.45;78.58
7532;BME280;3807;49.030;8.714;2023-12-20T11:52:16;99598.22;;;7.64;77.93
7532;BME280;3807;49.030;8.714;2023-12-20T11:54:41;99600.16;;;7.50;78.80
7532;BME280;3807;49.030;8.714;2023-12-20T11:57:07;99599.19;;;7.57;78.00
7532;BME280;3807;49.030;8.714;2023-12-20T11:59:32;99608.78;;;7.40;79.10
7532;BME280;3807;49.030;8.714;2023-12-20T12:01:58;99605.97;;;7.55;79.27
7532;BME280;3807;49.030;8.714;2023-12-20T12:04:26;99597.06;;;7.31;79.99
7532;BME280;3807;49.030;8.714;2023-12-20T12:06:51;99587.59;;;7.43;79.39
7532;BME280;3807;49.030;8.714;2023-12-20T12:09:17;99594.13;;;7.57;78.91
7532;BME280;3807;49.030;8.714;2023-12-20T12:11:42;99592.44;;;7.56;78.93
7532;BME280;3807;49.030;8.714;2023-12-20T12:14:08;99595.88;;;7.54;79.22
7532;BME280;3807;49.030;8.714;2023-12-20T12:16:33;99585.75;;;7.54;79.54
7532;BME280;3807;49.030;8.714;2023-12-20T12:18:59;99587.53;;;7.47;80.09
7532;BME280;3807;49.030;8.714;2023-12-20T12:21:25;99583.22;;;7.54;79.52
7532;BME280;3807;49.030;8.714;2023-12-20T12:23:51;99579.63;;;7.66;79.06
7532;BME280;3807;49.030;8.714;2023-12-20T12:26:16;99563.47;;;7.71;79.16
7532;BME280;3807;49.030;8.714;2023-12-20T12:28:42;99572.91;;;7.63;79.26
7532;BME280;3807;49.030;8.714;2023-12-20T12:31:09;99570.41;;;7.61;79.55
7532;BME280;3807;49.030;8.714;2023-12-20T12:33:38;99571.78;;;7.79;79.15
7532;BME280;3807;49.030;8.714;2023-12-20T12:36:03;99569.53;;;7.62;79.68
7532;BME280;3807;49.030;8.714;2023-12-20T12:38:32;99576.88;;;7.78;78.97
7532;BME280;3807;49.030;8.714;2023-12-20T12:40:57;99581.97;;;7.76;79.00
7532;BME280;3807;49.030;8.714;2023-12-20T12:43:23;99586.19;;;7.76;79.28
7532;BME280;3807;49.030;8.714;2023-12-20T12:45:49;99576.78;;;7.82;79.01
7532;BME280;3807;49.030;8.714;2023-12-20T12:48:14;99575.06;;;7.84;78.92
7532;BME280;3807;49.030;8.714;2023-12-20T12:50:40;99574.94;;;7.92;78.68
7532;BME280;3807;49.030;8.714;2023-12-20T12:53:05;99571.84;;;7.75;78.98
7532;BME280;3807;49.030;8.714;2023-12-20T12:55:31;99575.56;;;7.55;79.33
7532;BME280;3807;49.030;8.714;2023-12-20T12:57:56;99586.19;;;7.76;79.00
7532;BME280;3807;49.030;8.714;2023-12-20T13:00:22;99573.47;;;7.77;78.63
7532;BME280;3807;49.030;8.714;2023-12-20T13:02:47;99580.09;;;7.86;78.34
7532;BME280;3807;49.030;8.714;2023-12-20T13:05:13;99577.66;;;7.80;78.72
7532;BME280;3807;49.030;8.714;2023-12-20T13:07:38;99587.81;;;7.80;78.04
7532;BME280;3807;49.030;8.714;2023-12-20T13:10:05;99577.66;;;7.81;78.54
7532;BME280;3807;49.030;8.714;2023-12-20T13:12:31;99571.06;;;7.71;78.91
7532;BME280;3807;49.030;8.714;2023-12-20T13:14:57;99575.09;;;7.83;77.89
7532;BME280;3807;49.030;8.714;2023-12-20T13:17:22;99579.41;;;7.78;78.28
7532;BME280;3807;49.030;8.714;2023-12-20T13:19:48;99571.81;;;7.78;78.41
7532;BME280;3807;49.030;8.714;2023-12-20T13:22:15;99563.16;;;7.88;77.84
7532;BME280;3807;49.030;8.714;2023-12-20T13:24:40;99566.13;;;7.65;78.22
7532;BME280;3807;49.030;8.714;2023-12-20T13:27:05;99567.38;;;7.89;77.75
7532;BME280;3807;49.030;8.714;2023-12-20T13:29:31;99569.38;;;7.72;78.01
7532;BME280;3807;49.030;8.714;2023-12-20T13:31:56;99563.25;;;7.83;77.39